Time;durP1;ratioP1;P1;durP2;ratioP2;P2;SDS_P1;SDS_P2;PMS_P1;PMS_P2;Temp;Humidity;BMP_temperature;BMP_pressure;BME280_temperature;BME280_humidity;BME280_pressure;Samples;Min_cycle;Max_cycle;Signal;HPM_P1;HPM_P2
2022/01/17 00:11:26;;;;;;;10.00;6.10;;;;;;;0.24;86.78;98899.75;220027;1271;22556;-70
2022/01/17 00:35:27;;;;;;;10.20;5.80;;;;;;;0.47;86.52;98872.46;220089;1271;22963;-71
2022/01/17 00:47:55;;;;;;;;;;;;;;;;;;;;;
2022/01/17 00:54:05;;;;;;;;;;;;;;;;;;;;;
2022/01/17 01:00:35;;;;;;;10.00;5.40;;;;;;;0.60;85.78;98852.17;219528;1271;22557;-68
2022/01/17 01:12:33;;;;;;;7.40;4.60;;;;;;;0.69;85.70;98835.06;219702;1271;24249;-69
2022/01/17 01:31:09;;;;;;;7.50;4.60;;;;;;;0.75;85.30;98806.87;220042;1274;22920;-69
2022/01/17 01:42:04;;;;;;;8.20;5.30;;;;;;;0.72;84.92;98792.23;219731;1271;22603;-67
2022/01/17 01:47:56;;;;;;;8.90;5.20;;;;;;;0.74;84.96;98776.71;220141;1271;24289;-69
2022/01/17 01:53:27;;;;;;;7.80;4.90;;;;;;;0.74;84.76;98768.27;220315;1271;22526;-70
2022/01/17 01:58:47;;;;;;;6.90;4.10;;;;;;;0.73;84.61;98761.87;219678;1271;24173;-69
2022/01/17 02:04:21;;;;;;;7.80;4.40;;;;;;;0.74;84.66;98747.34;219911;1271;22576;-69
2022/01/17 02:22:04;;;;;;;4.90;3.20;;;;;;;0.85;84.23;98707.54;219656;1271;22626;-68
2022/01/17 02:27:21;;;;;;;4.20;3.10;;;;;;;0.91;83.78;98691.73;220066;1271;22583;-69
2022/01/17 02:33:13;;;;;;;4.90;3.00;;;;;;;0.95;83.77;98690.89;220035;1271;24240;-69
2022/01/17 02:38:53;;;;;;;4.20;2.70;;;;;;;1.00;83.42;98688.91;220252;1271;25374;-69
2022/01/17 02:44:00;;;;;;;3.80;2.80;;;;;;;1.07;83.48;98692.96;220015;1271;22899;-69
2022/01/17 02:49:08;;;;;;;3.60;2.80;;;;;;;1.13;83.32;98694.52;220168;1271;25888;-69
2022/01/17 02:54:16;;;;;;;4.00;2.90;;;;;;;1.20;83.37;98690.93;220306;1271;25457;-69
2022/01/17 02:59:39;;;;;;;6.30;3.50;;;;;;;1.27;83.24;98693.10;219992;1270;25431;-69
2022/01/17 03:05:10;;;;;;;;;;;;;;;1.36;83.17;98694.09;220216;1271;23906;-68
2022/01/17 03:17:13;;;;;;;6.00;3.80;;;;;;;1.46;83.04;98685.86;219696;1271;24044;-69
2022/01/17 03:30:01;;;;;;;6.80;4.40;;;;;;;1.49;82.42;98674.80;219469;1271;22707;-69
2022/01/17 03:36:10;;;;;;;7.10;5.00;;;;;;;1.53;82.82;98671.81;219663;1271;25264;-70
2022/01/17 03:42:14;;;;;;;;;;;;;;;;;;;;;
2022/01/17 03:48:27;;;;;;;8.10;5.30;;;;;;;1.60;82.19;98655.39;219699;1271;22871;-69
2022/01/17 03:54:42;;;;;;;7.80;5.80;;;;;;;1.61;82.25;98662.32;219830;1271;24224;-69
2022/01/17 04:06:34;;;;;;;6.80;4.90;;;;;;;1.71;82.02;98650.33;219968;1270;25366;-70
2022/01/17 04:12:44;;;;;;;7.60;5.30;;;;;;;1.76;81.67;98650.05;219508;1271;22565;-69
2022/01/17 04:19:09;;;;;;;7.40;5.40;;;;;;;1.79;81.67;98641.35;219842;1271;25424;-69
2022/01/17 04:31:04;;;;;;;7.70;4.90;;;;;;;1.87;81.57;98649.10;219840;1271;22535;-69
2022/01/17 04:50:50;;;;;;;;;;;;;;;;;;;;;
2022/01/17 04:57:02;;;;;;;7.80;4.90;;;;;;;1.86;81.04;98612.00;219314;1271;24244;-70
2022/01/17 05:02:33;;;;;;;6.30;4.80;;;;;;;1.90;80.83;98606.33;219901;1269;23078;-70
2022/01/17 05:07:52;;;;;;;6.40;4.70;;;;;;;1.97;81.00;98605.23;219722;1271;25333;-70
2022/01/17 05:13:02;;;;;;;5.50;4.30;;;;;;;2.02;80.79;98598.09;219547;1271;24875;-69
2022/01/17 05:19:48;;;;;;;7.40;4.40;;;;;;;2.02;80.42;98590.47;219616;1271;24332;-69
2022/01/17 05:24:00;;;;;;;5.70;3.90;;;;;;;2.03;80.51;98577.35;219706;1271;22553;-69
2022/01/17 05:29:22;;;;;;;6.90;4.70;;;;;;;2.12;80.44;98561.38;219880;1268;24329;-69
2022/01/17 05:34:34;;;;;;;7.70;5.00;;;;;;;2.21;80.44;98557.56;219930;1270;22714;-69
2022/01/17 05:39:37;;;;;;;5.90;4.10;;;;;;;2.28;80.35;98553.23;219734;1270;22685;-70
2022/01/17 05:45:45;;;;;;;7.00;4.40;;;;;;;2.32;80.06;98552.77;219739;1269;22571;-68
2022/01/17 05:50:48;;;;;;;6.80;4.40;;;;;;;2.35;79.85;98556.16;219903;1270;22656;-68
2022/01/17 05:56:10;;;;;;;5.70;3.60;;;;;;;2.38;79.48;98565.55;220021;1270;22570;-69
2022/01/17 06:01:16;;;;;;;6.80;4.00;;;;;;;2.42;79.51;98567.27;219744;1270;22543;-70
2022/01/17 06:06:23;;;;;;;5.80;3.80;;;;;;;2.43;79.25;98563.67;220127;1270;22669;-70
2022/01/17 06:11:25;;;;;;;7.40;4.80;;;;;;;2.43;78.84;98559.04;219604;1271;23170;-68
2022/01/17 06:16:51;;;;;;;7.30;3.80;;;;;;;2.44;78.82;98549.89;219609;1271;25065;-69
2022/01/17 06:22:43;;;;;;;6.30;3.60;;;;;;;2.45;78.36;98538.29;219697;1273;25331;-69
2022/01/17 06:27:46;;;;;;;5.00;3.30;;;;;;;2.48;78.61;98537.64;219136;1271;24243;-72
2022/01/17 06:32:54;;;;;;;5.30;3.50;;;;;;;2.51;78.43;98522.09;219466;1271;24282;-69
2022/01/17 06:38:08;;;;;;;5.40;3.30;;;;;;;2.51;78.60;98493.31;219620;1271;24227;-70
2022/01/17 06:43:12;;;;;;;5.10;3.50;;;;;;;2.49;79.01;98492.98;218989;1271;26526;-69
2022/01/17 06:53:29;;;;;;;5.00;3.20;;;;;;;2.40;79.61;98485.44;218804;1271;22560;-68
2022/01/17 06:59:30;;;;;;;4.30;3.30;;;;;;;2.38;79.75;98464.20;219076;1271;22553;-68
2022/01/17 07:04:56;;;;;;;6.10;4.10;;;;;;;2.36;79.64;98447.08;218813;1271;22553;-68
2022/01/17 07:10:18;;;;;;;6.60;3.80;;;;;;;2.36;79.75;98435.14;219282;1271;23720;-67
2022/01/17 07:15:41;;;;;;;5.40;3.70;;;;;;;2.38;79.92;98438.60;219678;1271;24313;-69
2022/01/17 07:21:34;;;;;;;5.00;3.40;;;;;;;2.45;79.95;98458.90;219529;1268;25250;-69
2022/01/17 07:27:43;;;;;;;;;;;;;;;;;;;;;
2022/01/17 07:32:46;;;;;;;3.70;2.80;;;;;;;2.74;79.09;98498.83;219759;1268;24206;-68
2022/01/17 07:37:48;;;;;;;4.80;3.80;;;;;;;2.85;78.72;98474.67;219914;1271;24425;-69
2022/01/17 07:42:51;;;;;;;5.00;3.00;;;;;;;2.90;78.70;98418.45;219707;1271;24244;-68
2022/01/17 07:53:39;;;;;;;4.10;2.70;;;;;;;3.05;78.21;98395.64;219615;1269;24430;-68
2022/01/17 07:59:16;;;;;;;3.60;2.60;;;;;;;3.10;77.91;98392.63;219604;1271;22557;-69
2022/01/17 08:04:19;;;;;;;2.80;2.30;;;;;;;3.16;78.14;98375.59;219476;1271;22553;-69
2022/01/17 08:09:33;;;;;;;3.90;2.50;;;;;;;3.24;78.11;98360.27;219526;1271;24300;-69
2022/01/17 08:14:56;;;;;;;3.40;2.40;;;;;;;3.33;77.73;98322.05;219999;1270;25321;-70
2022/01/17 08:20:14;;;;;;;3.60;2.20;;;;;;;3.39;77.52;98294.89;215440;1271;5349465;-68
2022/01/17 08:25:30;;;;;;;5.10;2.40;;;;;;;3.44;77.28;98292.60;219518;1268;23062;-68
2022/01/17 08:30:36;;;;;;;3.70;2.20;;;;;;;3.46;76.72;98283.82;219414;1271;22552;-68
2022/01/17 08:37:04;;;;;;;3.80;2.00;;;;;;;3.54;76.91;98291.83;219521;1270;25507;-69
2022/01/17 08:42:20;;;;;;;2.90;2.10;;;;;;;3.65;76.89;98286.76;219865;1268;24241;-69
2022/01/17 08:47:26;;;;;;;2.30;1.70;;;;;;;3.69;76.11;98273.38;219663;1271;22662;-70
2022/01/17 08:52:38;;;;;;;3.40;2.30;;;;;;;3.65;75.92;98268.16;219394;1271;25420;-70
2022/01/17 08:57:53;;;;;;;3.90;2.50;;;;;;;3.56;76.33;98245.81;219600;1269;22547;-70
2022/01/17 09:03:36;;;;;;;3.30;2.10;;;;;;;3.44;76.96;98233.33;219795;1271;22658;-70
2022/01/17 09:08:44;;;;;;;2.70;2.10;;;;;;;3.29;77.74;98237.20;219231;1271;22730;-70
2022/01/17 09:13:53;;;;;;;4.70;3.00;;;;;;;3.18;78.05;98208.33;219611;1271;22584;-70
2022/01/17 09:19:10;;;;;;;4.30;2.80;;;;;;;3.12;77.98;98209.86;220073;1271;22725;-70
2022/01/17 09:24:12;;;;;;;5.50;3.70;;;;;;;3.11;78.28;98227.84;219832;1271;22922;-70
2022/01/17 09:29:15;;;;;;;8.30;4.80;;;;;;;3.11;78.37;98217.97;219315;1271;24482;-69
2022/01/17 09:34:23;;;;;;;6.10;4.00;;;;;;;3.10;78.53;98217.58;219651;1271;24552;-69
2022/01/17 09:39:53;;;;;;;;;;;;;;;3.13;78.62;98195.20;219771;1269;22729;-70
2022/01/17 09:45:30;;;;;;;4.20;2.90;;;;;;;3.17;78.97;98161.52;219672;1270;23821;-70
2022/01/17 09:51:16;;;;;;;4.10;2.80;;;;;;;3.28;78.84;98150.73;219573;1271;22550;-69
2022/01/17 09:56:27;;;;;;;4.20;2.50;;;;;;;3.36;78.32;98147.39;219451;1270;25445;-70
2022/01/17 10:01:39;;;;;;;3.80;2.50;;;;;;;3.47;77.93;98127.70;219622;1271;25607;-70
2022/01/17 10:07:05;;;;;;;3.60;2.50;;;;;;;3.49;77.92;98112.40;219937;1271;25796;-70
2022/01/17 10:12:31;;;;;;;3.80;2.30;;;;;;;3.48;77.81;98097.98;219830;1271;23889;-70
2022/01/17 10:17:46;;;;;;;4.90;2.40;;;;;;;3.50;77.61;98091.33;221330;1268;22545;-70
2022/01/17 10:23:29;;;;;;;1.60;1.20;;;;;;;3.56;77.64;98110.46;219969;1269;22559;-70
2022/01/17 10:35:38;;;;;;;2.10;1.40;;;;;;;3.97;76.74;98104.77;219850;1268;25255;-69
2022/01/17 10:41:34;;;;;;;1.70;1.00;;;;;;;4.03;76.41;98103.11;219554;1271;22557;-69
2022/01/17 10:47:43;;;;;;;1.70;0.90;;;;;;;4.09;76.19;98072.27;219681;1269;25453;-71
2022/01/17 10:52:57;;;;;;;1.60;0.90;;;;;;;4.07;76.42;98042.36;221317;1271;22569;-69
2022/01/17 10:58:19;;;;;;;2.20;1.30;;;;;;;4.09;76.91;98051.27;219597;1269;22598;-70
2022/01/17 11:03:35;;;;;;;1.10;1.00;;;;;;;4.00;77.24;98050.72;219821;1268;22697;-69
2022/01/17 11:08:56;;;;;;;;;;;;;;;;;;;;;
2022/01/17 11:14:37;;;;;;;1.00;0.80;;;;;;;3.80;78.76;98050.84;220285;1271;26360;-69
2022/01/17 11:20:27;;;;;;;2.80;1.00;;;;;;;3.66;79.58;98044.77;219811;1271;22547;-69
2022/01/17 11:25:41;;;;;;;1.70;0.90;;;;;;;3.56;80.19;98051.09;220125;1271;22561;-69
2022/01/17 11:30:49;;;;;;;1.60;0.90;;;;;;;3.48;80.96;98047.63;219795;1269;22555;-69
2022/01/17 11:35:59;;;;;;;1.00;0.70;;;;;;;3.49;81.23;98032.25;220404;1270;22554;-69
2022/01/17 11:41:27;;;;;;;1.60;0.80;;;;;;;3.49;81.41;98030.26;219934;1271;24247;-69
2022/01/17 11:46:42;;;;;;;1.20;0.70;;;;;;;3.41;81.64;98007.88;219682;1271;24251;-69
2022/01/17 11:51:48;;;;;;;0.80;0.80;;;;;;;3.36;82.04;98014.37;219726;1271;24394;-69
2022/01/17 11:57:30;;;;;;;3.00;1.40;;;;;;;3.36;82.54;98028.20;220997;1271;24788;-69
2022/01/17 12:02:49;;;;;;;2.70;1.10;;;;;;;3.40;82.56;98041.51;220208;1271;22610;-69
2022/01/17 12:08:28;;;;;;;2.80;0.90;;;;;;;3.47;82.47;98028.19;220071;1268;22900;-69
2022/01/17 12:13:43;;;;;;;1.80;1.00;;;;;;;3.57;82.37;98028.80;220164;1271;22661;-69
2022/01/17 12:18:54;;;;;;;0.70;0.60;;;;;;;3.65;82.07;98040.79;219711;1269;25289;-68
2022/01/17 12:24:19;;;;;;;1.80;0.80;;;;;;;3.63;82.28;98069.92;219913;1270;22547;-70
2022/01/17 12:35:55;;;;;;;0.80;0.40;;;;;;;2.87;83.70;98275.21;220687;1269;22582;-72
2022/01/17 12:41:48;;;;;;;;;;;;;;;;;;;;;
2022/01/17 12:48:12;;;;;;;2.00;0.70;;;;;;;0.89;83.80;98328.73;220774;1271;25320;-71
2022/01/17 12:53:29;;;;;;;1.90;0.90;;;;;;;0.52;84.79;98322.67;220777;1271;22544;-70
2022/01/17 12:59:31;;;;;;;1.00;0.50;;;;;;;0.28;85.16;98312.48;219371;1269;22604;-69
2022/01/17 13:05:15;;;;;;;2.20;0.90;;;;;;;0.16;85.31;98320.94;219655;1271;22604;-69
2022/01/17 13:17:45;;;;;;;1.50;0.60;;;;;;;0.22;85.54;98344.43;219421;1271;22560;-69
2022/01/17 13:23:51;;;;;;;1.50;0.60;;;;;;;0.22;85.45;98357.20;220942;1270;22627;-70
2022/01/17 13:30:11;;;;;;;1.20;0.60;;;;;;;0.24;85.70;98371.27;221190;1271;24222;-71
2022/01/17 13:35:34;;;;;;;;;;;;;;;;;;;;;
2022/01/17 13:42:14;;;;;;;2.00;1.00;;;;;;;0.24;85.49;98431.85;221077;1271;22647;-72
2022/01/17 13:47:31;;;;;;;3.60;1.10;;;;;;;0.22;85.33;98428.81;220905;1271;23304;-72
2022/01/17 13:52:43;;;;;;;2.40;1.10;;;;;;;0.21;85.15;98449.86;220632;1271;22580;-72
2022/01/17 13:58:33;;;;;;;3.40;1.60;;;;;;;0.20;85.16;98445.46;221128;1270;24270;-72
2022/01/17 14:04:04;;;;;;;4.30;1.90;;;;;;;0.18;85.11;98464.86;221178;1271;22541;-73
2022/01/17 14:09:52;;;;;;;;;;;;;;;0.12;84.89;98481.73;221017;1271;22535;-73
2022/01/17 14:15:57;;;;;;;4.70;2.20;;;;;;;0.03;84.68;98498.70;220611;1271;23117;-73
2022/01/17 14:22:20;;;;;;;2.30;1.20;;;;;;;-0.06;84.76;98515.92;220861;1271;22537;-72
2022/01/17 14:28:51;;;;;;;4.20;1.70;;;;;;;-0.12;84.48;98502.64;220848;1271;26367;-72
2022/01/17 14:34:41;;;;;;;6.80;2.50;;;;;;;-0.17;84.17;98520.85;221277;1271;22556;-69
2022/01/17 14:40:28;;;;;;;8.90;3.50;;;;;;;-0.21;84.14;98540.77;221241;1271;22758;-72
2022/01/17 14:45:51;;;;;;;7.20;3.10;;;;;;;-0.26;84.52;98559.63;220980;1271;22556;-71
2022/01/17 15:07:31;;;;;;;9.00;3.70;;;;;;;-0.29;85.35;98613.73;220825;1271;24169;-72
2022/01/17 15:13:29;;;;;;;;;;;;;;;;;;;;;
2022/01/17 15:18:55;;;;;;;6.70;3.50;;;;;;;-0.30;85.37;98661.57;220892;1270;25376;-72
2022/01/17 15:24:48;;;;;;;;;;;;;;;;;;;;;
2022/01/17 15:30:58;;;;;;;8.40;3.70;;;;;;;-0.31;85.67;98689.33;220724;1271;24402;-73
2022/01/17 15:36:51;;;;;;;12.70;3.90;;;;;;;-0.35;85.67;98684.21;220362;1271;22610;-74
2022/01/17 15:43:30;;;;;;;11.10;4.50;;;;;;;-0.38;86.01;98708.48;220814;1271;22559;-73
2022/01/17 15:54:30;;;;;;;9.70;4.10;;;;;;;-0.38;86.56;98726.63;220669;1271;26515;-74
2022/01/17 16:00:16;;;;;;;7.90;3.60;;;;;;;-0.37;86.57;98737.39;221241;1271;23177;-73
2022/01/17 16:05:47;;;;;;;7.00;3.30;;;;;;;-0.37;86.73;98755.71;221256;1270;22741;-74
2022/01/17 16:11:37;;;;;;;9.00;4.90;;;;;;;-0.36;86.93;98777.77;220918;1269;25493;-74
2022/01/17 16:17:17;;;;;;;7.00;3.20;;;;;;;-0.36;87.09;98791.38;220501;1271;22622;-74
2022/01/17 16:22:44;;;;;;;6.30;3.00;;;;;;;-0.31;87.67;98812.52;220972;1271;25319;-73
2022/01/17 16:28:21;;;;;;;8.40;3.00;;;;;;;-0.30;87.49;98823.41;221202;1270;26754;-73
2022/01/17 16:33:43;;;;;;;;;;;;;;;;;;;;;
2022/01/17 16:39:29;;;;;;;6.10;2.70;;;;;;;-0.31;87.21;98850.91;220756;1271;24283;-73
2022/01/17 16:45:24;;;;;;;;;;;;;;;;;;;;;
2022/01/17 16:57:40;;;;;;;9.30;3.10;;;;;;;-0.39;86.26;98899.02;220964;1271;25450;-73
2022/01/17 17:03:41;;;;;;;9.00;2.60;;;;;;;-0.41;85.73;98918.62;220782;1271;22538;-73
2022/01/17 17:09:21;;;;;;;5.90;2.30;;;;;;;-0.43;85.40;98938.56;220940;1271;23829;-73
2022/01/17 17:15:38;;;;;;;;;;;;;;;;;;;;;
2022/01/17 17:21:40;;;;;;;;;;;;;;;;;;;;;
2022/01/17 17:27:43;;;;;;;8.00;3.20;;;;;;;-0.50;84.75;98981.69;221137;1271;22577;-73
2022/01/17 17:33:43;;;;;;;;;;;;;;;;;;;;;
2022/01/17 17:39:05;;;;;;;8.00;2.70;;;;;;;-0.54;84.40;99008.10;221145;1271;22567;-73
2022/01/17 17:44:38;;;;;;;;;;;;;;;;;;;;;
2022/01/17 17:50:09;;;;;;;6.40;2.60;;;;;;;-0.57;84.15;99029.09;221189;1271;22584;-73
2022/01/17 17:56:24;;;;;;;6.50;2.60;;;;;;;-0.58;84.04;99035.33;220928;1271;22562;-73
2022/01/17 18:02:15;;;;;;;7.70;2.70;;;;;;;-0.60;84.07;99054.81;221137;1271;22601;-73
2022/01/17 18:07:51;;;;;;;9.80;3.50;;;;;;;-0.62;83.63;99074.97;221291;1271;26444;-72
2022/01/17 18:18:49;;;;;;;11.00;3.10;;;;;;;-0.63;83.54;99123.08;220746;1271;22599;-72
2022/01/17 18:24:03;;;;;;;10.30;3.10;;;;;;;-0.63;83.28;99121.45;221114;1271;22632;-71
2022/01/17 18:30:47;;;;;;;;;;;;;;;;;;;;;
2022/01/17 18:36:37;;;;;;;7.50;2.90;;;;;;;-0.61;82.77;99149.14;221247;1271;22558;-72
2022/01/17 18:42:04;;;;;;;8.60;3.00;;;;;;;-0.62;82.50;99156.23;221027;1268;24384;-71
2022/01/17 18:47:38;;;;;;;8.60;2.50;;;;;;;-0.63;82.69;99177.04;220740;1269;22630;-71
2022/01/17 18:52:51;;;;;;;;;;;;;;;;;;;;;
2022/01/17 18:58:38;;;;;;;11.00;3.70;;;;;;;-0.66;82.29;99188.94;220847;1269;22719;-72
2022/01/17 19:04:02;;;;;;;8.90;3.00;;;;;;;-0.66;82.26;99204.77;220662;1271;22481;-71
2022/01/17 19:09:07;;;;;;;7.00;2.60;;;;;;;-0.68;82.06;99215.02;220946;1270;22574;-71
2022/01/17 19:14:35;;;;;;;10.50;3.40;;;;;;;-0.69;82.15;99221.17;220767;1271;22912;-71
2022/01/17 19:25:38;;;;;;;7.20;3.20;;;;;;;-0.69;81.89;99226.63;221119;1271;24244;-72
2022/01/17 19:30:50;;;;;;;6.80;2.50;;;;;;;-0.71;81.92;99226.44;221319;1271;22520;-72
2022/01/17 19:35:58;;;;;;;8.80;3.50;;;;;;;-0.73;82.00;99236.36;220920;1271;24461;-71
2022/01/17 19:41:04;;;;;;;8.20;3.30;;;;;;;-0.73;81.91;99245.65;220926;1271;22566;-71
2022/01/17 19:46:22;;;;;;;7.10;3.10;;;;;;;-0.76;81.66;99253.52;220775;1271;22569;-71
2022/01/17 19:52:19;;;;;;;11.50;3.40;;;;;;;-0.79;81.74;99268.41;221143;1271;22816;-71
2022/01/17 19:58:05;;;;;;;10.60;3.10;;;;;;;-0.81;81.81;99275.80;220858;1271;22646;-71
2022/01/17 20:03:52;;;;;;;13.20;3.60;;;;;;;-0.88;81.54;99286.58;221037;1271;22603;-71
2022/01/17 20:09:19;;;;;;;13.30;3.90;;;;;;;-0.93;81.83;99304.85;220873;1271;26153;-71
2022/01/17 20:15:03;;;;;;;10.70;4.50;;;;;;;-0.97;81.68;99323.98;220694;1271;25550;-71
2022/01/17 20:20:26;;;;;;;12.30;4.20;;;;;;;-1.02;81.83;99347.41;217051;1271;5343222;-70
2022/01/17 20:25:29;;;;;;;8.60;3.30;;;;;;;-1.05;81.92;99365.11;220648;1271;25003;-71
2022/01/17 20:30:32;;;;;;;8.80;3.90;;;;;;;-1.06;81.73;99378.59;220979;1271;24186;-71
2022/01/17 20:35:58;;;;;;;14.50;4.40;;;;;;;-1.07;81.83;99394.00;220822;1271;22609;-70
2022/01/17 20:41:09;;;;;;;16.90;5.70;;;;;;;-1.10;81.66;99412.08;221093;1271;24819;-70
2022/01/17 20:46:24;;;;;;;14.70;4.50;;;;;;;-1.12;82.00;99424.80;221105;1270;22585;-70
2022/01/17 20:51:49;;;;;;;13.40;4.50;;;;;;;-1.15;81.96;99440.08;221088;1271;24154;-70
2022/01/17 20:57:03;;;;;;;10.40;4.40;;;;;;;-1.18;81.95;99456.52;220844;1271;22747;-70
2022/01/17 21:02:26;;;;;;;13.10;4.70;;;;;;;-1.21;82.04;99468.81;219833;1271;22784;-70
2022/01/17 21:07:43;;;;;;;;;;;;;;;;;;;;;
2022/01/17 21:12:59;;;;;;;10.30;3.80;;;;;;;-1.32;82.15;99484.59;219805;1271;22700;-70
2022/01/17 21:18:05;;;;;;;13.10;3.80;;;;;;;-1.35;82.27;99493.45;219971;1271;22632;-70
2022/01/17 21:28:52;;;;;;;15.90;4.80;;;;;;;-1.39;82.35;99519.37;220006;1271;25549;-70
2022/01/17 21:34:05;;;;;;;12.00;3.70;;;;;;;-1.41;82.25;99526.17;220020;1270;25254;-70
2022/01/17 21:39:10;;;;;;;16.80;5.80;;;;;;;-1.44;82.48;99536.02;220016;1271;24271;-69
2022/01/17 21:44:36;;;;;;;17.50;5.60;;;;;;;-1.48;82.37;99541.47;219916;1271;24286;-69
2022/01/17 21:49:59;;;;;;;17.80;6.60;;;;;;;-1.53;82.51;99549.52;219937;1271;25509;-71
2022/01/17 21:55:44;;;;;;;18.90;6.30;;;;;;;-1.59;82.61;99556.75;219700;1271;22921;-70
2022/01/17 22:00:48;;;;;;;18.10;5.90;;;;;;;-1.64;82.64;99569.96;219810;1271;22488;-69
2022/01/17 22:06:05;;;;;;;12.60;4.60;;;;;;;-1.70;82.59;99575.98;219702;1271;22806;-68
2022/01/17 22:11:20;;;;;;;;;;;;;;;;;;;;;
2022/01/17 22:16:44;;;;;;;15.00;4.00;;;;;;;-1.73;83.07;99591.02;220168;1271;22556;-69
2022/01/17 22:21:50;;;;;;;15.20;4.30;;;;;;;-1.72;83.20;99588.61;219886;1271;25446;-69
2022/01/17 22:26:54;;;;;;;9.70;3.90;;;;;;;-1.73;83.07;99593.33;219944;1271;25616;-70
2022/01/17 22:32:08;;;;;;;16.60;4.10;;;;;;;-1.74;83.34;99604.71;219772;1271;22544;-70
2022/01/17 22:38:01;;;;;;;16.50;3.50;;;;;;;-1.74;83.27;99619.67;220047;1271;24244;-69
2022/01/17 22:44:07;;;;;;;9.80;3.50;;;;;;;-1.72;83.40;99627.58;219638;1271;23061;-69
2022/01/17 22:49:59;;;;;;;12.10;3.30;;;;;;;-1.74;83.32;99632.89;219906;1271;25379;-69
2022/01/17 22:55:04;;;;;;;11.90;2.70;;;;;;;-1.74;83.37;99632.88;219706;1271;24499;-68
2022/01/17 23:00:13;;;;;;;7.50;3.00;;;;;;;-1.74;83.19;99637.08;219761;1271;24332;-69
2022/01/17 23:05:36;;;;;;;9.20;2.90;;;;;;;-1.74;83.32;99645.33;219793;1271;22612;-70
2022/01/17 23:10:51;;;;;;;9.40;3.40;;;;;;;-1.74;83.37;99659.77;220028;1271;24244;-70
2022/01/17 23:15:54;;;;;;;13.20;3.20;;;;;;;-1.72;83.29;99659.10;220042;1270;22634;-70
2022/01/17 23:20:58;;;;;;;9.90;3.00;;;;;;;-1.72;83.13;99668.69;219803;1271;22732;-70
2022/01/17 23:26:23;;;;;;;13.60;3.80;;;;;;;-1.73;83.12;99674.70;219736;1271;22622;-70
2022/01/17 23:37:39;;;;;;;;;;;;;;;;;;;;;
2022/01/17 23:48:17;;;;;;;7.00;3.40;;;;;;;-1.72;83.15;99696.04;219530;1269;24382;-69
2022/01/17 23:53:22;;;;;;;13.40;2.80;;;;;;;-1.72;83.09;99712.29;219941;1271;22698;-70
2022/01/17 23:58:28;;;;;;;10.30;2.70;;;;;;;-1.71;83.13;99714.44;219812;1271;22672;-71
